Terminal Aerodrome Forecast
Issued by NWS

Home | Current Version | Previous Version | Text Only | Print | Product List | Glossary On
Versions: 1 2 3 4 5 6 7 8 9 10 11 12 13 14 15 16 17 18 19 20 21 22 23 24
000
FTPA31 PHFO 251700
TAFJHM
TAF
PHJH 251739Z 2518/2618 14005KT P6SM SCT030 BKN050
     FM252100 26008KT P6SM FEW025 SCT045
     FM260500 VRB04KT P6SM VCSH SCT025 SCT040
      AMD NOT SKED AFT 260400=

USA.gov is the U.S. government's official web portal to all federal, state and local government web resources and services.